createdAt,value
2023-05-09T00:01:36.827Z,5.59
2023-05-09T00:04:40.983Z,5.53
2023-05-09T00:07:45.008Z,5.50
2023-05-09T00:10:48.959Z,5.44
2023-05-09T00:13:53.418Z,5.34
2023-05-09T00:16:59.385Z,5.28
2023-05-09T00:20:05.353Z,5.28
2023-05-09T00:23:09.369Z,5.29
2023-05-09T00:26:13.316Z,5.33
2023-05-09T00:29:19.450Z,5.36
2023-05-09T00:32:23.395Z,5.36
2023-05-09T00:35:27.378Z,5.33
2023-05-09T00:38:31.597Z,5.30
2023-05-09T00:41:35.716Z,5.25
2023-05-09T00:44:39.799Z,5.16
2023-05-09T00:47:43.876Z,5.04
2023-05-09T00:50:52.914Z,4.93
2023-05-09T00:53:57.124Z,4.90
2023-05-09T00:57:01.220Z,4.91
2023-05-09T01:00:06.698Z,4.88
2023-05-09T01:03:11.295Z,4.81
2023-05-09T01:06:39.722Z,4.70
2023-05-09T01:09:47.082Z,4.59
2023-05-09T01:13:01.802Z,4.50
2023-05-09T01:16:21.156Z,4.45
2023-05-09T01:19:34.333Z,4.47
2023-05-09T01:22:47.010Z,4.45
2023-05-09T01:26:13.011Z,4.41
2023-05-09T01:29:47.335Z,4.36
2023-05-09T01:32:54.025Z,4.27
2023-05-09T01:36:02.076Z,4.28
2023-05-09T01:39:09.821Z,4.34
2023-05-09T01:42:17.421Z,4.33
2023-05-09T01:45:23.702Z,4.31
2023-05-09T01:48:31.043Z,4.30
2023-05-09T01:51:37.763Z,4.24
2023-05-09T01:54:44.763Z,4.19
2023-05-09T01:57:51.197Z,4.14
2023-05-09T02:00:55.829Z,4.12
2023-05-09T02:04:00.540Z,4.10
2023-05-09T02:07:06.269Z,4.10
2023-05-09T02:10:11.087Z,4.09
2023-05-09T02:13:15.745Z,4.13
2023-05-09T02:16:20.947Z,4.18
2023-05-09T02:19:24.971Z,4.19
2023-05-09T02:22:29.003Z,4.14
2023-05-09T02:25:34.410Z,4.10
2023-05-09T02:28:39.679Z,4.10
2023-05-09T02:31:45.575Z,4.08
2023-05-09T02:34:52.460Z,4.03
2023-05-09T02:37:58.997Z,3.95
2023-05-09T02:41:03.212Z,3.91
2023-05-09T02:44:07.615Z,3.86
2023-05-09T02:47:11.592Z,3.85
2023-05-09T02:50:15.790Z,3.77
2023-05-09T02:53:20.443Z,3.71
2023-05-09T02:56:24.440Z,3.68
2023-05-09T02:59:28.741Z,3.64
2023-05-09T03:02:33.436Z,3.62
2023-05-09T03:05:37.713Z,3.57
2023-05-09T03:08:41.879Z,3.53
2023-05-09T03:11:46.405Z,3.54
2023-05-09T03:14:50.476Z,3.57
2023-05-09T03:17:54.525Z,3.61
2023-05-09T03:20:58.864Z,3.70
2023-05-09T03:24:04.864Z,3.80
2023-05-09T03:27:08.889Z,3.84
2023-05-09T03:30:13.671Z,3.79
2023-05-09T03:33:18.035Z,3.78
2023-05-09T03:36:23.285Z,3.74
2023-05-09T03:39:28.015Z,3.70
2023-05-09T03:42:33.770Z,3.72
2023-05-09T03:45:38.813Z,3.74
2023-05-09T03:48:44.037Z,3.77
2023-05-09T03:51:48.369Z,3.83
2023-05-09T03:54:53.138Z,3.89
2023-05-09T03:57:57.740Z,3.93
2023-05-09T04:01:02.677Z,3.96
2023-05-09T04:04:07.313Z,4.00
2023-05-09T04:07:12.128Z,4.01
2023-05-09T04:10:16.279Z,4.01
2023-05-09T04:13:20.742Z,4.02
2023-05-09T04:16:25.161Z,4.07
2023-05-09T04:19:29.336Z,4.17
2023-05-09T04:22:33.618Z,4.28
2023-05-09T04:25:37.776Z,4.37
2023-05-09T04:28:42.185Z,4.49
2023-05-09T04:31:47.145Z,4.62
2023-05-09T04:34:51.447Z,4.73
2023-05-09T04:37:58.140Z,4.85
2023-05-09T04:41:02.291Z,4.97
2023-05-09T04:44:06.762Z,5.12
2023-05-09T04:47:11.318Z,5.26
2023-05-09T04:50:16.673Z,5.42
2023-05-09T04:53:20.621Z,5.59
2023-05-09T04:56:24.991Z,5.75
2023-05-09T04:59:29.119Z,5.91
2023-05-09T05:02:33.183Z,6.03
2023-05-09T05:05:37.934Z,6.17
2023-05-09T05:08:43.240Z,6.30
2023-05-09T05:11:58.373Z,6.41
2023-05-09T05:15:05.051Z,6.55
2023-05-09T05:18:09.553Z,6.70
2023-05-09T05:21:13.814Z,6.84
2023-05-09T05:24:18.491Z,7.02
2023-05-09T05:27:23.387Z,7.21
2023-05-09T05:30:28.320Z,7.40
2023-05-09T05:33:32.359Z,7.58
2023-05-09T05:36:36.970Z,7.76
2023-05-09T05:39:41.585Z,7.93
2023-05-09T05:42:46.743Z,8.10
2023-05-09T05:45:51.201Z,8.27
2023-05-09T05:48:56.808Z,8.44
2023-05-09T05:52:00.996Z,8.61
2023-05-09T05:55:06.485Z,8.77
2023-05-09T05:58:10.506Z,8.95
2023-05-09T06:01:14.623Z,9.11
2023-05-09T06:04:18.927Z,9.29
2023-05-09T06:07:23.052Z,9.46
2023-05-09T06:10:27.088Z,9.63
2023-05-09T06:13:31.055Z,9.81
2023-05-09T06:16:39.336Z,10.02
2023-05-09T06:19:43.434Z,10.20
2023-05-09T06:22:47.455Z,10.37
2023-05-09T06:25:51.563Z,10.55
2023-05-09T06:28:56.190Z,10.72
2023-05-09T06:32:00.464Z,10.90
2023-05-09T06:35:05.525Z,11.05
2023-05-09T06:38:09.464Z,11.22
2023-05-09T06:41:13.399Z,11.39
2023-05-09T06:44:17.495Z,11.55
2023-05-09T06:47:21.711Z,11.71
2023-05-09T06:50:25.836Z,11.87
2023-05-09T06:53:29.854Z,12.00
2023-05-09T06:56:33.976Z,12.15
2023-05-09T06:59:38.100Z,12.26
2023-05-09T07:02:42.554Z,12.40
2023-05-09T07:05:47.237Z,12.54
2023-05-09T07:08:51.457Z,12.68
2023-05-09T07:11:55.897Z,12.81
2023-05-09T07:15:00.226Z,12.91
2023-05-09T07:18:04.431Z,13.04
2023-05-09T07:21:08.553Z,13.15
2023-05-09T07:24:12.571Z,13.25
2023-05-09T07:27:16.779Z,13.35
2023-05-09T07:30:20.877Z,13.45
2023-05-09T07:33:24.925Z,13.55
2023-05-09T07:36:28.941Z,13.65
2023-05-09T07:39:32.954Z,13.75
2023-05-09T07:42:37.185Z,13.87
2023-05-09T07:45:41.624Z,13.96
2023-05-09T07:48:46.088Z,14.03
2023-05-09T07:51:50.249Z,14.08
2023-05-09T07:54:54.787Z,14.13
2023-05-09T07:57:58.890Z,14.19
2023-05-09T08:01:02.904Z,14.21
2023-05-09T08:04:09.204Z,14.26
2023-05-09T08:07:13.379Z,14.36
2023-05-09T08:10:17.513Z,14.46
2023-05-09T08:13:22.542Z,14.54
2023-05-09T08:16:26.790Z,14.64
2023-05-09T08:19:30.999Z,14.72
2023-05-09T08:22:35.733Z,14.80
2023-05-09T08:25:39.746Z,14.86
2023-05-09T08:28:43.986Z,14.92
2023-05-09T08:31:49.059Z,14.98
2023-05-09T08:34:53.542Z,15.02
2023-05-09T08:37:57.604Z,15.07
2023-05-09T08:41:02.243Z,15.09
2023-05-09T08:44:07.297Z,15.11
2023-05-09T08:47:12.057Z,15.16
2023-05-09T08:50:17.760Z,15.23
2023-05-09T08:53:22.943Z,15.28
2023-05-09T08:56:27.282Z,15.31
2023-05-09T08:59:35.299Z,15.34
2023-05-09T09:02:42.429Z,15.40
2023-05-09T09:05:48.714Z,15.47
2023-05-09T09:08:56.091Z,15.51
2023-05-09T09:12:00.781Z,15.56
2023-05-09T09:15:06.824Z,15.61
2023-05-09T09:18:22.834Z,15.64
2023-05-09T09:21:27.484Z,15.65
2023-05-09T09:24:32.400Z,15.68
2023-05-09T09:27:36.949Z,15.71
2023-05-09T09:30:45.388Z,15.75
2023-05-09T09:33:50.045Z,15.77
2023-05-09T09:36:54.078Z,15.79
2023-05-09T09:39:58.298Z,15.81
2023-05-09T09:43:02.344Z,15.86
2023-05-09T09:46:06.391Z,15.92
2023-05-09T09:49:11.700Z,16.00
2023-05-09T09:52:25.221Z,16.06
2023-05-09T09:55:29.417Z,16.11
2023-05-09T09:58:33.759Z,16.16
2023-05-09T10:02:12.416Z,16.19
2023-05-09T10:05:34.963Z,16.23
2023-05-09T10:08:40.359Z,16.26
2023-05-09T10:11:47.903Z,16.31
2023-05-09T10:14:52.915Z,16.31
2023-05-09T10:17:58.279Z,16.36
2023-05-09T10:21:05.644Z,16.42
2023-05-09T10:24:10.914Z,16.46
2023-05-09T10:27:18.117Z,16.53
2023-05-09T10:30:34.231Z,16.66
2023-05-09T10:33:44.381Z,16.83
2023-05-09T10:36:49.276Z,17.02
2023-05-09T10:39:55.596Z,17.17
2023-05-09T10:42:59.611Z,17.33
2023-05-09T10:46:07.137Z,17.46
2023-05-09T10:49:11.394Z,17.59
2023-05-09T10:52:15.633Z,17.75
2023-05-09T10:55:19.854Z,17.96
2023-05-09T10:58:29.364Z,18.16
2023-05-09T11:01:39.242Z,18.41
2023-05-09T11:04:44.781Z,18.64
2023-05-09T11:08:28.584Z,18.82
2023-05-09T11:11:32.769Z,18.93
2023-05-09T11:14:39.664Z,19.05
2023-05-09T11:17:43.934Z,19.13
2023-05-09T11:20:49.461Z,19.23
2023-05-09T11:23:55.262Z,19.24
2023-05-09T11:27:00.157Z,19.19
2023-05-09T11:30:07.417Z,19.09
2023-05-09T11:33:47.911Z,19.02
2023-05-09T11:37:09.815Z,19.02
2023-05-09T11:40:15.839Z,18.91
2023-05-09T11:43:20.212Z,18.86
2023-05-09T11:46:24.224Z,18.85
2023-05-09T11:49:28.353Z,18.85
2023-05-09T11:52:35.690Z,18.80
2023-05-09T11:55:41.416Z,18.78
2023-05-09T11:58:46.857Z,18.76
2023-05-09T12:13:27.051Z,19.32
2023-05-09T12:16:31.496Z,19.31
2023-05-09T12:19:35.964Z,19.22
2023-05-09T12:22:44.050Z,19.11
2023-05-09T12:25:56.098Z,19.08
2023-05-09T12:29:00.608Z,19.05
2023-05-09T12:32:05.895Z,18.96
2023-05-09T12:35:11.365Z,18.94
2023-05-09T12:38:21.631Z,18.99
2023-05-09T12:44:32.871Z,19.22
2023-05-09T12:47:39.234Z,19.38
2023-05-09T12:50:47.588Z,19.57
2023-05-09T12:53:52.579Z,19.74
2023-05-09T12:56:58.586Z,19.95
2023-05-09T13:00:06.417Z,20.12
2023-05-09T13:03:25.571Z,20.23
2023-05-09T13:06:29.964Z,20.39
2023-05-09T13:09:34.290Z,20.59
2023-05-09T13:12:39.412Z,20.79
2023-05-09T13:15:44.245Z,21.03
2023-05-09T13:18:48.652Z,21.29
2023-05-09T13:21:55.189Z,21.52
2023-05-09T13:24:59.290Z,21.67
2023-05-09T13:28:04.808Z,21.87
2023-05-09T13:31:10.490Z,22.09
2023-05-09T13:34:14.564Z,22.29
2023-05-09T13:37:18.628Z,22.54
2023-05-09T13:40:22.915Z,22.83
2023-05-09T13:43:27.615Z,23.16
2023-05-09T13:46:31.960Z,23.39
2023-05-09T13:49:36.808Z,23.62
2023-05-09T13:52:40.859Z,23.74
2023-05-09T13:55:45.801Z,23.91
2023-05-09T13:58:49.908Z,24.07
2023-05-09T14:01:53.965Z,24.22
2023-05-09T14:04:59.072Z,24.40
2023-05-09T14:08:03.389Z,24.61
2023-05-09T14:11:08.931Z,24.83
2023-05-09T14:14:12.960Z,24.92
2023-05-09T14:17:17.077Z,25.10
2023-05-09T14:20:21.286Z,25.21
2023-05-09T14:23:25.197Z,25.31
2023-05-09T14:26:29.330Z,25.27
2023-05-09T14:29:33.444Z,25.06
2023-05-09T14:32:37.461Z,24.62
2023-05-09T14:35:41.953Z,24.12
2023-05-09T14:38:46.955Z,23.65
2023-05-09T14:41:52.269Z,23.22
2023-05-09T14:44:56.218Z,22.81
2023-05-09T14:48:00.593Z,22.39
2023-05-09T14:51:05.043Z,22.05
2023-05-09T14:54:09.048Z,21.68
2023-05-09T14:57:13.480Z,21.36
2023-05-09T15:00:22.025Z,21.07
2023-05-09T15:03:26.480Z,20.74
2023-05-09T15:06:30.620Z,20.42
2023-05-09T15:09:34.666Z,20.13
2023-05-09T15:12:38.802Z,19.87
2023-05-09T15:15:42.818Z,19.67
2023-05-09T15:18:46.815Z,19.47
2023-05-09T15:21:51.752Z,19.26
2023-05-09T15:24:55.712Z,19.04
2023-05-09T15:28:00.623Z,18.87
2023-05-09T15:31:04.841Z,18.77
2023-05-09T15:34:08.939Z,18.68
2023-05-09T15:37:13.276Z,18.61
2023-05-09T15:40:17.520Z,18.54
2023-05-09T15:43:21.700Z,18.53
2023-05-09T15:46:25.848Z,18.47
2023-05-09T15:49:30.142Z,18.41
2023-05-09T15:52:34.372Z,18.40
2023-05-09T15:55:38.482Z,18.32
2023-05-09T15:58:42.507Z,18.22
2023-05-09T16:01:46.688Z,18.22
2023-05-09T16:04:50.778Z,18.33
2023-05-09T16:07:54.881Z,18.52
2023-05-09T16:11:01.030Z,18.71
2023-05-09T16:14:08.364Z,18.88
2023-05-09T16:17:12.652Z,18.94
2023-05-09T16:20:17.095Z,18.95
2023-05-09T16:23:21.796Z,18.94
2023-05-09T16:26:26.232Z,18.88
2023-05-09T16:29:30.137Z,18.77
2023-05-09T16:32:34.121Z,18.62
2023-05-09T16:35:38.170Z,18.46
2023-05-09T16:38:42.101Z,18.32
2023-05-09T16:41:46.409Z,18.23
2023-05-09T16:44:50.438Z,18.11
2023-05-09T16:47:55.858Z,17.92
2023-05-09T16:51:00.188Z,17.76
2023-05-09T16:54:04.206Z,17.61
2023-05-09T16:57:08.533Z,17.44
2023-05-09T17:00:13.752Z,17.26
2023-05-09T17:03:18.198Z,17.04
2023-05-09T17:06:22.318Z,16.87
2023-05-09T17:09:26.669Z,16.70
2023-05-09T17:12:30.858Z,16.57
2023-05-09T17:15:34.985Z,16.43
2023-05-09T17:18:39.169Z,16.29
2023-05-09T17:21:43.425Z,16.17
2023-05-09T17:24:47.638Z,16.08
2023-05-09T17:27:51.574Z,15.95
2023-05-09T17:30:55.684Z,15.84
2023-05-09T17:33:59.788Z,15.74
2023-05-09T17:37:05.854Z,15.63
2023-05-09T17:40:10.510Z,15.51
2023-05-09T17:43:14.505Z,15.39
2023-05-09T17:46:18.554Z,15.30
2023-05-09T17:49:22.636Z,15.22
2023-05-09T17:52:26.988Z,15.13
2023-05-09T17:55:31.098Z,15.01
2023-05-09T17:58:35.063Z,14.88
2023-05-09T18:01:39.131Z,14.77
2023-05-09T18:04:45.388Z,14.65
2023-05-09T18:07:49.697Z,14.55
2023-05-09T18:10:57.092Z,14.45
2023-05-09T18:14:01.100Z,14.33
2023-05-09T18:17:05.230Z,14.22
2023-05-09T18:20:10.261Z,14.13
2023-05-09T18:23:15.621Z,14.01
2023-05-09T18:26:19.741Z,13.90
2023-05-09T18:29:23.867Z,13.76
2023-05-09T18:32:30.061Z,13.64
2023-05-09T18:35:34.154Z,13.52
2023-05-09T18:38:39.073Z,13.39
2023-05-09T18:41:43.192Z,13.26
2023-05-09T18:44:47.212Z,13.12
2023-05-09T18:47:51.268Z,13.00
2023-05-09T18:50:55.665Z,12.89
2023-05-09T18:53:59.666Z,12.78
2023-05-09T18:57:03.795Z,12.66
2023-05-09T19:00:08.595Z,12.55
2023-05-09T19:03:12.733Z,12.45
2023-05-09T19:06:16.750Z,12.34
2023-05-09T19:09:20.765Z,12.25
2023-05-09T19:12:24.812Z,12.15
2023-05-09T19:15:30.058Z,12.05
2023-05-09T19:18:34.687Z,11.95
2023-05-09T19:25:00.815Z,11.75
2023-05-09T19:28:05.048Z,11.64
2023-05-09T19:31:10.014Z,11.57
2023-05-09T19:34:14.401Z,11.50
2023-05-09T19:37:18.406Z,11.43
2023-05-09T19:40:22.627Z,11.38
2023-05-09T19:43:26.620Z,11.31
2023-05-09T19:46:31.017Z,11.23
2023-05-09T19:49:35.190Z,11.16
2023-05-09T19:52:40.131Z,11.09
2023-05-09T19:55:47.022Z,11.02
2023-05-09T19:58:51.027Z,10.96
2023-05-09T20:01:55.194Z,10.91
2023-05-09T20:04:59.680Z,10.85
2023-05-09T20:08:04.098Z,10.80
2023-05-09T20:11:08.121Z,10.73
2023-05-09T20:14:12.131Z,10.66
2023-05-09T20:17:16.375Z,10.61
2023-05-09T20:20:20.573Z,10.57
2023-05-09T20:23:24.594Z,10.53
2023-05-09T20:26:29.825Z,10.47
2023-05-09T20:29:33.843Z,10.42
2023-05-09T20:32:37.802Z,10.34
2023-05-09T20:35:45.157Z,10.30
2023-05-09T20:38:49.456Z,10.24
2023-05-09T20:41:55.645Z,10.19
2023-05-09T20:44:59.575Z,10.16
2023-05-09T20:48:05.800Z,10.11
2023-05-09T20:51:10.252Z,10.08
2023-05-09T20:54:14.269Z,10.06
2023-05-09T20:57:18.298Z,10.02
2023-05-09T21:00:22.316Z,9.98
2023-05-09T21:03:26.382Z,9.96
2023-05-09T21:06:31.136Z,9.93
2023-05-09T21:09:35.046Z,9.91
2023-05-09T21:12:38.950Z,9.87
2023-05-09T21:15:42.998Z,9.84
2023-05-09T21:18:47.015Z,9.80
2023-05-09T21:21:51.022Z,9.77
2023-05-09T21:24:54.987Z,9.74
2023-05-09T21:27:58.986Z,9.70
2023-05-09T21:31:03.439Z,9.66
2023-05-09T21:34:10.282Z,9.62
2023-05-09T21:37:15.230Z,9.59
2023-05-09T21:40:19.263Z,9.57
2023-05-09T21:43:23.179Z,9.55
2023-05-09T21:46:27.164Z,9.52
2023-05-09T21:49:31.467Z,9.51
2023-05-09T21:52:35.481Z,9.50
2023-05-09T21:55:39.395Z,9.47
2023-05-09T21:58:43.314Z,9.44
2023-05-09T22:01:47.358Z,9.38
2023-05-09T22:04:51.296Z,9.34
2023-05-09T22:07:55.369Z,9.33
2023-05-09T22:10:59.782Z,9.31
2023-05-09T22:14:03.700Z,9.30
2023-05-09T22:17:08.502Z,9.28
2023-05-09T22:20:12.772Z,9.25
2023-05-09T22:23:16.759Z,9.22
2023-05-09T22:26:21.507Z,9.20
2023-05-09T22:29:25.498Z,9.18
2023-05-09T22:32:29.640Z,9.15
2023-05-09T22:35:33.747Z,9.12
2023-05-09T22:38:37.663Z,9.11
2023-05-09T22:41:41.595Z,9.08
2023-05-09T22:44:47.348Z,9.04
2023-05-09T22:47:51.316Z,9.01
2023-05-09T22:50:55.465Z,8.95
2023-05-09T22:53:59.590Z,8.91
2023-05-09T22:57:03.699Z,8.89
2023-05-09T23:00:08.684Z,8.86
2023-05-09T23:03:12.728Z,8.84
2023-05-09T23:06:16.792Z,8.83
2023-05-09T23:09:21.405Z,8.81
2023-05-09T23:12:25.527Z,8.79
2023-05-09T23:15:29.563Z,8.77
2023-05-09T23:18:33.555Z,8.77
2023-05-09T23:21:37.671Z,8.78
2023-05-09T23:24:41.681Z,8.78
2023-05-09T23:27:47.123Z,8.76
2023-05-09T23:30:52.537Z,8.77
2023-05-09T23:33:56.812Z,8.75
2023-05-09T23:37:01.236Z,8.73
2023-05-09T23:40:06.139Z,8.71
2023-05-09T23:43:10.073Z,8.68
2023-05-09T23:46:14.169Z,8.65
2023-05-09T23:49:18.382Z,8.62
2023-05-09T23:52:23.483Z,8.59
2023-05-09T23:55:28.092Z,8.56
2023-05-09T23:58:32.118Z,8.55
